Time;durP1;ratioP1;P1;durP2;ratioP2;P2;SDS_P1;SDS_P2;PMS_P1;PMS_P2;Temp;Humidity;BMP_temperature;BMP_pressure;BME280_temperature;BME280_humidity;BME280_pressure;Samples;Min_cycle;Max_cycle;Signal;HPM_P1;HPM_P2
2023/08/10 00:59:48;;;;;;;8.80;7.90;;;;;;;13.17;76.82;100806.01;208803;1258;10201949;-75
2023/08/10 01:26:16;;;;;;;7.50;6.40;;;;;;;12.50;77.15;100835.65;216771;1260;72569;-75
2023/08/10 01:39:13;;;;;;;;;;;;;;;;;;;;;
2023/08/10 01:59:11;;;;;;;8.60;6.30;;;;;;;12.08;77.59;100842.62;216529;1260;72351;-74
2023/08/10 02:36:03;;;;;;;6.90;6.00;;;;;;;11.64;77.69;100847.55;219856;1251;59680;-75
2023/08/10 02:59:03;;;;;;;6.10;5.40;;;;;;;11.42;77.29;100868.58;219032;1254;73692;-74
2023/08/10 03:04:24;;;;;;;7.00;6.30;;;;;;;11.38;77.28;100869.89;220773;1247;59321;-75
2023/08/10 03:09:45;;;;;;;;;;;;;;;;;;;;;
2023/08/10 03:15:11;;;;;;;9.60;7.70;;;;;;;11.30;77.08;100881.39;221454;1241;61169;-75
2023/08/10 03:26:25;;;;;;;13.10;6.90;;;;;;;11.20;76.92;100894.41;223857;1234;72960;-75
2023/08/10 03:37:19;;;;;;;9.60;7.50;;;;;;;11.15;76.88;100897.98;224005;1234;65768;-76
2023/08/10 03:42:30;;;;;;;8.10;6.60;;;;;;;11.13;76.88;100901.23;223925;1233;57498;-75
2023/08/10 03:47:56;;;;;;;8.70;7.10;;;;;;;11.12;76.90;100912.84;223874;1234;74723;-75
2023/08/10 03:52:56;;;;;;;8.30;7.10;;;;;;;11.14;76.84;100919.13;223825;1233;73138;-75
2023/08/10 03:58:33;;;;;;;8.90;7.30;;;;;;;11.18;76.84;100917.29;224003;1234;60471;-74
2023/08/10 04:03:52;;;;;;;8.90;7.00;;;;;;;11.20;76.79;100918.17;223853;1234;65754;-75
2023/08/10 04:09:10;;;;;;;12.70;7.60;;;;;;;11.24;76.78;100922.77;223768;1234;58541;-75
2023/08/10 04:14:10;;;;;;;7.70;6.70;;;;;;;11.28;76.92;100927.86;223916;1234;74723;-74
2023/08/10 04:19:21;;;;;;;9.60;7.10;;;;;;;11.33;77.12;100932.63;223786;1235;71854;-75
2023/08/10 04:24:51;;;;;;;;;;;;;;;;;;;;;
2023/08/10 04:30:02;;;;;;;12.30;7.70;;;;;;;11.40;77.38;100928.77;223936;1234;66366;-74
2023/08/10 04:34:57;;;;;;;10.70;7.80;;;;;;;11.53;77.61;100932.61;223818;1234;59631;-74
2023/08/10 04:40:00;;;;;;;10.30;8.00;;;;;;;11.65;77.88;100933.87;223970;1234;73782;-75
2023/08/10 04:45:17;;;;;;;9.90;8.80;;;;;;;11.79;77.79;100930.95;223906;1234;73533;-75
2023/08/10 04:50:15;;;;;;;14.50;8.80;;;;;;;11.95;77.81;100932.61;223923;1234;59774;-74
2023/08/10 04:55:38;;;;;;;12.40;9.50;;;;;;;12.11;78.03;100933.55;223925;1234;66762;-74
2023/08/10 05:00:52;;;;;;;10.50;8.30;;;;;;;12.33;78.09;100934.36;223731;1234;60683;-74
2023/08/10 05:05:57;;;;;;;10.10;9.10;;;;;;;12.47;78.09;100945.14;223925;1234;73717;-74
2023/08/10 05:11:07;;;;;;;12.30;9.10;;;;;;;12.62;78.03;100950.20;223944;1234;71712;-75
2023/08/10 05:16:54;;;;;;;9.40;8.50;;;;;;;12.79;78.13;100952.48;223943;1234;60076;-75
2023/08/10 05:22:14;;;;;;;13.10;10.00;;;;;;;12.96;78.26;100963.65;223868;1234;66940;-75
2023/08/10 05:27:06;;;;;;;10.90;9.80;;;;;;;13.12;78.40;100967.14;223938;1234;61391;-75
2023/08/10 05:32:11;;;;;;;14.90;10.80;;;;;;;13.23;78.33;100974.20;224003;1234;71321;-75
2023/08/10 05:37:17;;;;;;;11.70;10.40;;;;;;;13.39;78.57;100980.48;223991;1234;73399;-74
2023/08/10 05:42:15;;;;;;;11.50;10.20;;;;;;;13.53;78.59;100984.45;224485;1231;59126;-75
2023/08/10 05:47:22;;;;;;;11.50;10.50;;;;;;;13.68;78.68;100989.11;224630;1231;68221;-75
2023/08/10 05:52:34;;;;;;;11.20;10.10;;;;;;;13.89;78.85;100995.38;224641;1230;60645;-75
2023/08/10 05:58:18;;;;;;;13.80;12.40;;;;;;;14.09;78.94;100995.86;224427;1230;73924;-75
2023/08/10 06:03:50;;;;;;;12.60;11.40;;;;;;;14.32;79.08;100999.15;224268;1231;73355;-75
2023/08/10 06:09:36;;;;;;;13.60;11.30;;;;;;;14.50;78.93;100993.86;224597;1231;59279;-75
2023/08/10 06:14:30;;;;;;;14.70;12.10;;;;;;;14.64;78.56;100999.36;224585;1231;66025;-75
2023/08/10 06:19:22;;;;;;;12.20;11.10;;;;;;;14.76;78.36;100998.90;224585;1231;57545;-75
2023/08/10 06:30:03;;;;;;;9.70;8.80;;;;;;;16.22;75.90;101006.94;224545;1231;73572;-75
2023/08/10 06:35:05;;;;;;;9.90;9.00;;;;;;;17.23;74.17;101003.64;224396;1231;58679;-75
2023/08/10 06:46:29;;;;;;;10.70;9.70;;;;;;;17.68;72.80;101014.91;224128;1230;61203;-77
2023/08/10 06:52:34;;;;;;;;;;;;;;;;;;;;;
2023/08/10 06:58:21;;;;;;;9.40;8.50;;;;;;;17.77;72.67;101015.73;223159;1239;71214;-75
2023/08/10 07:03:47;;;;;;;9.80;7.80;;;;;;;17.98;71.83;101023.30;223102;1238;61157;-76
2023/08/10 07:09:17;;;;;;;;;;;;;;;;;;;;;
2023/08/10 07:22:07;;;;;;;6.50;6.00;;;;;;;21.20;65.87;101013.48;222201;1246;73490;-76
2023/08/10 07:33:23;;;;;;;7.90;5.50;;;;;;;21.66;64.52;101014.66;221504;1245;58953;-76
2023/08/10 07:38:23;;;;;;;4.90;4.50;;;;;;;24.84;59.77;101012.81;221992;1245;68790;-77
2023/08/10 07:44:05;;;;;;;6.30;4.40;;;;;;;28.37;55.30;101008.14;221040;1248;57524;-77
2023/08/10 07:49:18;;;;;;;4.40;4.00;;;;;;;27.18;54.95;101011.62;220963;1248;73091;-76
2023/08/10 07:54:10;;;;;;;5.60;4.40;;;;;;;26.64;54.25;101009.48;221235;1245;57605;-76
2023/08/10 07:59:34;;;;;;;4.10;3.80;;;;;;;25.86;55.37;101008.94;222255;1243;58619;-76
2023/08/10 08:11:50;;;;;;;;;;;;;;;;;;;;;
2023/08/10 09:32:21;;;;;;;;;;;;;;;;;;;;;
2023/08/10 11:13:20;;;;;;;;;;;;;;;;;;;;;
2023/08/10 12:12:29;;;;;;;2.40;2.00;;;;;;;24.84;40.27;100988.35;218689;1254;66911;-75
2023/08/10 12:30:41;;;;;;;3.20;1.80;;;;;;;25.18;40.08;100979.05;217421;1264;71304;-76
2023/08/10 12:36:23;;;;;;;2.40;2.10;;;;;;;24.63;40.12;100983.26;219871;1252;58250;-77
2023/08/10 12:41:49;;;;;;;2.10;1.90;;;;;;;25.26;40.52;100977.85;220278;1248;67538;-76
2023/08/10 12:46:41;;;;;;;2.60;2.40;;;;;;;26.09;39.99;100976.39;221140;1248;58260;-76
2023/08/10 12:51:36;;;;;;;3.80;2.00;;;;;;;26.61;38.60;100971.75;220970;1247;58499;-75
2023/08/10 12:56:29;;;;;;;5.40;1.60;;;;;;;27.12;38.29;100970.28;221064;1248;71096;-75
2023/08/10 13:01:25;;;;;;;1.60;1.50;;;;;;;27.57;37.67;100971.33;220743;1248;231655;-75
2023/08/10 13:06:30;;;;;;;1.90;1.60;;;;;;;27.84;36.97;100967.83;223898;1232;67030;-75
2023/08/10 13:11:22;;;;;;;3.50;2.10;;;;;;;28.04;37.45;100963.42;224590;1230;58902;-75
2023/08/10 13:16:14;;;;;;;2.70;1.40;;;;;;;28.22;36.66;100958.54;224640;1232;58275;-75
2023/08/10 13:21:06;;;;;;;2.00;1.80;;;;;;;28.30;36.32;100960.81;224561;1232;58106;-75
2023/08/10 13:25:58;;;;;;;6.10;1.80;;;;;;;28.40;36.47;100952.06;224300;1234;58190;-75
2023/08/10 13:30:50;;;;;;;2.60;1.80;;;;;;;28.33;35.74;100949.44;224537;1231;72884;-76
2023/08/10 13:35:41;;;;;;;1.70;1.60;;;;;;;28.09;35.91;100950.52;224639;1231;58483;-75
2023/08/10 13:40:33;;;;;;;2.20;1.70;;;;;;;28.20;36.43;100946.03;224645;1232;58425;-75
2023/08/10 13:45:24;;;;;;;4.20;1.50;;;;;;;28.26;36.24;100946.05;224474;1231;59923;-75
2023/08/10 13:50:16;;;;;;;1.90;1.50;;;;;;;28.38;36.54;100943.08;224331;1232;58624;-75
2023/08/10 13:55:08;;;;;;;2.00;1.50;;;;;;;28.38;35.82;100942.91;224659;1231;58248;-75
2023/08/10 14:00:34;;;;;;;1.80;1.60;;;;;;;27.39;36.41;100948.14;224217;1231;66678;-75
2023/08/10 14:05:58;;;;;;;1.90;1.60;;;;;;;26.23;37.05;100945.36;224371;1230;58397;-76
2023/08/10 14:11:24;;;;;;;3.20;2.00;;;;;;;25.92;37.82;100951.88;224445;1232;73809;-75
2023/08/10 14:16:25;;;;;;;1.80;1.50;;;;;;;26.35;37.54;100945.91;224556;1231;72448;-75
2023/08/10 14:36:00;;;;;;;2.20;1.50;;;;;;;26.58;36.49;100933.52;223249;1238;58548;-75
2023/08/10 14:48:10;;;;;;;2.20;1.50;;;;;;;25.01;37.55;100937.35;218898;1260;72453;-75
2023/08/10 14:53:31;;;;;;;4.50;1.90;;;;;;;24.86;39.46;100935.79;219023;1257;61673;-76
2023/08/10 15:05:27;;;;;;;;;;;;;;;;;;;;;
2023/08/10 15:10:19;;;;;;;1.90;1.70;;;;;;;25.93;36.92;100929.48;218737;1258;74081;-76
2023/08/10 15:15:16;;;;;;;2.60;1.60;;;;;;;26.11;37.04;100930.13;219218;1254;58215;-76
2023/08/10 16:47:25;;;;;;;4.00;2.30;;;;;;;22.58;43.29;100975.27;220171;1252;73732;-76
2023/08/10 16:52:22;;;;;;;2.80;2.00;;;;;;;22.20;44.73;100975.61;221297;1248;72689;-75
2023/08/10 16:57:16;;;;;;;3.90;1.90;;;;;;;21.86;45.49;100978.95;221520;1248;59915;-75
2023/08/10 17:02:10;;;;;;;2.60;2.40;;;;;;;21.55;46.44;100983.44;221716;1244;58664;-76
2023/08/10 17:07:12;;;;;;;2.30;2.10;;;;;;;21.22;46.58;100982.25;222151;1244;58640;-75
2023/08/10 17:12:10;;;;;;;2.00;1.90;;;;;;;20.91;46.93;100983.81;222923;1238;74938;-76
2023/08/10 17:17:06;;;;;;;2.40;2.20;;;;;;;20.62;47.62;100991.79;222988;1238;74581;-75
2023/08/10 17:22:04;;;;;;;2.70;2.00;;;;;;;20.38;48.64;100990.48;223530;1231;58519;-75
2023/08/10 17:27:32;;;;;;;3.00;2.30;;;;;;;20.12;49.13;100998.55;224444;1230;66179;-75
2023/08/10 17:32:39;;;;;;;2.50;2.30;;;;;;;19.91;49.97;101006.83;224698;1230;58344;-75
2023/08/10 17:37:57;;;;;;;2.60;2.10;;;;;;;19.70;50.38;101010.66;224653;1231;72846;-75
2023/08/10 17:43:50;;;;;;;4.00;1.80;;;;;;;19.49;50.64;101012.38;224648;1231;72819;-75
2023/08/10 17:55:39;;;;;;;2.50;2.20;;;;;;;19.19;51.62;101011.95;224684;1231;68501;-75
2023/08/10 18:01:34;;;;;;;4.00;2.10;;;;;;;18.98;52.50;101015.74;223314;1237;58481;-77
2023/08/10 18:13:13;;;;;;;3.60;2.20;;;;;;;18.62;52.86;101023.88;221819;1246;71367;-75
2023/08/10 18:18:07;;;;;;;7.80;2.60;;;;;;;18.47;53.44;101032.13;221707;1246;60252;-75
2023/08/10 18:22:59;;;;;;;5.20;2.50;;;;;;;18.32;53.94;101031.56;221795;1245;58437;-75
2023/08/10 18:27:50;;;;;;;10.70;2.80;;;;;;;18.18;54.29;101039.78;221886;1245;59222;-74
2023/08/10 18:32:42;;;;;;;3.40;3.10;;;;;;;18.05;54.62;101042.35;221892;1245;65310;-74
2023/08/10 18:37:35;;;;;;;3.30;2.30;;;;;;;17.89;55.04;101042.65;222162;1242;58595;-74
2023/08/10 18:42:27;;;;;;;3.50;2.60;;;;;;;17.71;55.32;101045.05;223034;1239;58260;-74
2023/08/10 18:47:19;;;;;;;2.90;2.60;;;;;;;17.58;55.83;101047.23;223867;1231;58518;-74
2023/08/10 18:52:12;;;;;;;3.00;2.40;;;;;;;17.44;56.42;101048.91;224712;1231;58274;-74
2023/08/10 18:57:03;;;;;;;2.70;2.30;;;;;;;17.31;57.04;101051.42;224657;1231;72750;-74
2023/08/10 19:01:55;;;;;;;4.30;2.70;;;;;;;17.19;57.60;101053.42;224640;1231;58451;-74
2023/08/10 19:06:51;;;;;;;6.10;3.50;;;;;;;17.09;57.94;101048.74;224274;1231;58440;-74
2023/08/10 19:12:04;;;;;;;6.60;2.80;;;;;;;16.98;58.11;101051.59;224303;1230;58431;-73
2023/08/10 19:16:56;;;;;;;3.50;3.00;;;;;;;16.86;58.25;101044.44;224384;1231;58481;-74
2023/08/10 19:21:50;;;;;;;4.40;2.90;;;;;;;16.70;58.18;101043.77;224704;1232;58108;-74
2023/08/10 19:26:41;;;;;;;4.50;3.00;;;;;;;16.55;58.60;101051.52;224669;1230;72337;-73
2023/08/10 19:31:33;;;;;;;3.20;2.90;;;;;;;16.46;58.88;101054.51;224358;1231;58276;-74
2023/08/10 19:36:25;;;;;;;3.70;3.10;;;;;;;16.36;59.14;101057.33;224415;1231;58357;-73
2023/08/10 19:41:16;;;;;;;4.90;3.50;;;;;;;16.27;59.44;101065.91;224551;1230;72509;-74
2023/08/10 19:46:08;;;;;;;5.10;3.10;;;;;;;16.16;59.89;101069.58;224637;1231;58451;-74
2023/08/10 19:51:00;;;;;;;6.40;3.60;;;;;;;16.07;60.12;101071.52;224533;1230;58309;-74
2023/08/10 19:55:51;;;;;;;3.40;3.10;;;;;;;15.98;60.36;101072.04;224616;1230;58964;-74
2023/08/10 20:00:43;;;;;;;2.90;2.70;;;;;;;15.91;60.76;101075.52;224610;1231;58159;-74
2023/08/10 20:05:48;;;;;;;5.70;3.60;;;;;;;15.81;60.86;101075.52;224629;1230;58333;-74
2023/08/10 20:10:42;;;;;;;3.80;3.50;;;;;;;15.71;61.06;101072.16;224606;1230;68329;-74
2023/08/10 20:15:44;;;;;;;4.20;3.60;;;;;;;15.59;61.49;101071.61;224566;1231;58815;-74
2023/08/10 20:20:54;;;;;;;3.40;2.70;;;;;;;15.43;61.62;101072.98;224572;1230;75080;-74
2023/08/10 20:26:03;;;;;;;3.80;3.50;;;;;;;15.30;62.13;101080.09;224402;1231;73641;-75
2023/08/10 20:31:00;;;;;;;4.20;3.80;;;;;;;15.24;62.48;101077.80;224544;1231;60444;-75
2023/08/10 20:35:55;;;;;;;4.50;3.30;;;;;;;15.18;62.69;101080.58;224490;1230;68347;-74
2023/08/10 20:40:47;;;;;;;6.70;4.60;;;;;;;15.14;63.00;101079.16;224356;1231;58227;-74
2023/08/10 20:45:42;;;;;;;7.10;5.20;;;;;;;15.04;63.30;101080.69;224652;1231;58361;-75
2023/08/10 20:50:34;;;;;;;5.90;5.30;;;;;;;14.93;63.79;101082.21;224460;1231;59955;-74
2023/08/10 20:55:26;;;;;;;5.20;4.40;;;;;;;14.84;64.06;101089.67;224617;1231;58438;-74
2023/08/10 21:00:18;;;;;;;7.50;5.10;;;;;;;14.75;64.28;101096.61;224596;1231;58137;-74
2023/08/10 21:05:10;;;;;;;6.70;4.30;;;;;;;14.68;64.75;101099.00;224218;1231;74216;-74
2023/08/10 21:10:02;;;;;;;4.40;4.00;;;;;;;14.63;64.91;101098.11;224576;1230;58163;-74
2023/08/10 21:14:54;;;;;;;4.60;4.20;;;;;;;14.57;65.16;101092.63;224631;1231;58283;-74
2023/08/10 21:19:45;;;;;;;4.40;4.00;;;;;;;14.52;65.25;101094.85;224510;1231;58159;-74
2023/08/10 21:24:38;;;;;;;5.00;4.10;;;;;;;14.45;65.42;101099.69;224507;1231;60020;-74
2023/08/10 21:29:30;;;;;;;5.60;4.40;;;;;;;14.39;65.62;101101.39;224476;1230;58158;-74
2023/08/10 21:34:21;;;;;;;5.20;4.60;;;;;;;14.34;65.74;101104.66;224476;1231;58558;-74
2023/08/10 21:39:13;;;;;;;7.80;4.30;;;;;;;14.24;65.80;101097.09;224674;1230;58088;-74
2023/08/10 21:44:05;;;;;;;6.30;4.30;;;;;;;14.17;65.87;101095.28;224507;1230;58302;-74
2023/08/10 21:48:56;;;;;;;4.80;4.10;;;;;;;14.11;66.24;101096.46;224358;1231;58447;-74
2023/08/10 21:53:51;;;;;;;6.20;4.80;;;;;;;14.08;66.43;101092.77;224620;1231;58283;-74
2023/08/10 21:58:46;;;;;;;6.00;4.60;;;;;;;14.04;66.47;101087.86;224399;1231;73772;-74
2023/08/10 22:03:42;;;;;;;4.90;4.30;;;;;;;13.97;66.51;101085.70;224347;1230;73902;-74
2023/08/10 22:08:34;;;;;;;4.90;3.90;;;;;;;13.90;66.64;101088.09;224632;1231;60463;-74
2023/08/10 22:13:26;;;;;;;4.40;4.00;;;;;;;13.84;66.77;101085.94;224416;1230;58189;-74
2023/08/10 22:18:18;;;;;;;5.20;4.70;;;;;;;13.78;67.00;101082.91;224418;1230;58111;-74
2023/08/10 22:23:09;;;;;;;5.00;4.60;;;;;;;13.79;67.26;101082.75;224627;1230;65690;-74
2023/08/10 22:28:04;;;;;;;7.90;5.10;;;;;;;13.76;67.40;101087.25;224432;1230;58286;-75
2023/08/10 22:32:56;;;;;;;5.20;4.70;;;;;;;13.72;67.47;101088.44;224581;1231;58137;-74
2023/08/10 22:37:50;;;;;;;5.90;4.70;;;;;;;13.72;67.64;101088.27;224583;1231;58427;-74
2023/08/10 22:42:42;;;;;;;4.90;4.40;;;;;;;13.71;67.73;101088.61;224588;1231;58289;-74
2023/08/10 22:47:38;;;;;;;4.80;4.30;;;;;;;13.69;67.75;101086.66;224560;1231;66973;-74
2023/08/10 22:52:30;;;;;;;4.60;4.20;;;;;;;13.67;67.96;101085.25;224557;1231;58162;-74
2023/08/10 22:57:22;;;;;;;5.50;4.30;;;;;;;13.66;67.98;101080.53;224649;1231;58199;-74
2023/08/10 23:02:13;;;;;;;5.00;4.50;;;;;;;13.64;68.22;101078.09;224578;1231;58478;-74
2023/08/10 23:07:05;;;;;;;5.10;4.60;;;;;;;13.64;68.19;101072.51;224487;1230;74060;-74
2023/08/10 23:11:57;;;;;;;5.20;4.70;;;;;;;13.54;68.11;101071.18;224538;1231;58417;-74
2023/08/10 23:16:48;;;;;;;6.40;4.60;;;;;;;13.46;68.16;101076.15;224575;1230;58183;-74
2023/08/10 23:21:40;;;;;;;5.30;4.80;;;;;;;13.36;68.31;101079.35;224509;1231;72564;-74
2023/08/10 23:26:32;;;;;;;6.00;4.60;;;;;;;13.31;68.38;101075.28;224386;1231;58415;-74
2023/08/10 23:31:26;;;;;;;5.40;4.90;;;;;;;13.26;68.46;101072.23;224556;1231;58386;-74
2023/08/10 23:36:18;;;;;;;6.40;5.00;;;;;;;13.21;68.54;101069.04;224452;1230;59473;-74
2023/08/10 23:41:10;;;;;;;5.60;5.10;;;;;;;13.14;68.52;101064.27;224512;1231;58137;-74
2023/08/10 23:46:03;;;;;;;6.20;5.00;;;;;;;13.07;68.53;101066.77;224560;1231;58501;-74
2023/08/10 23:50:56;;;;;;;7.50;4.90;;;;;;;12.96;68.60;101069.27;224214;1231;58201;-74
2023/08/10 23:55:50;;;;;;;4.50;4.10;;;;;;;12.87;68.75;101064.80;224522;1231;58329;-74
